sensor_id;sensor_type;location;lat;lon;timestamp;P1;durP1;ratioP1;P2;durP2;ratioP2
17197;SDS011;8715;51.010;6.812;2024-01-27T00:00:04;746.28;;;712.05;;
17197;SDS011;8715;51.010;6.812;2024-01-27T00:02:49;735.53;;;702.65;;
17197;SDS011;8715;51.010;6.812;2024-01-27T00:05:35;730.08;;;697.38;;
17197;SDS011;8715;51.010;6.812;2024-01-27T00:08:20;739.08;;;705.17;;
17197;SDS011;8715;51.010;6.812;2024-01-27T00:11:05;735.25;;;702.13;;
17197;SDS011;8715;51.010;6.812;2024-01-27T00:13:52;743.90;;;710.55;;
17197;SDS011;8715;51.010;6.812;2024-01-27T00:16:37;743.53;;;710.00;;
17197;SDS011;8715;51.010;6.812;2024-01-27T00:19:22;733.38;;;700.00;;
17197;SDS011;8715;51.010;6.812;2024-01-27T00:22:07;741.05;;;707.55;;
17197;SDS011;8715;51.010;6.812;2024-01-27T00:24:52;729.55;;;696.60;;
17197;SDS011;8715;51.010;6.812;2024-01-27T00:27:38;730.53;;;698.13;;
17197;SDS011;8715;51.010;6.812;2024-01-27T00:30:24;741.67;;;708.08;;
17197;SDS011;8715;51.010;6.812;2024-01-27T00:33:10;732.65;;;699.83;;
17197;SDS011;8715;51.010;6.812;2024-01-27T00:35:55;733.78;;;701.10;;
17197;SDS011;8715;51.010;6.812;2024-01-27T00:38:40;731.38;;;699.08;;
17197;SDS011;8715;51.010;6.812;2024-01-27T00:41:25;740.70;;;708.08;;
17197;SDS011;8715;51.010;6.812;2024-01-27T00:44:10;734.70;;;702.42;;
17197;SDS011;8715;51.010;6.812;2024-01-27T00:46:56;717.55;;;686.55;;
17197;SDS011;8715;51.010;6.812;2024-01-27T00:49:41;724.72;;;692.55;;
17197;SDS011;8715;51.010;6.812;2024-01-27T00:52:26;725.47;;;693.95;;
17197;SDS011;8715;51.010;6.812;2024-01-27T00:55:11;736.15;;;703.42;;
17197;SDS011;8715;51.010;6.812;2024-01-27T00:57:57;725.20;;;693.45;;
17197;SDS011;8715;51.010;6.812;2024-01-27T01:00:42;724.35;;;692.63;;
17197;SDS011;8715;51.010;6.812;2024-01-27T01:03:28;720.60;;;688.95;;
17197;SDS011;8715;51.010;6.812;2024-01-27T01:06:14;716.85;;;685.30;;
17197;SDS011;8715;51.010;6.812;2024-01-27T01:08:59;722.25;;;690.08;;
17197;SDS011;8715;51.010;6.812;2024-01-27T01:11:45;712.47;;;681.67;;
17197;SDS011;8715;51.010;6.812;2024-01-27T01:14:30;712.55;;;681.60;;
17197;SDS011;8715;51.010;6.812;2024-01-27T01:17:15;722.78;;;690.92;;
17197;SDS011;8715;51.010;6.812;2024-01-27T01:20:01;724.88;;;693.15;;
17197;SDS011;8715;51.010;6.812;2024-01-27T01:22:46;711.60;;;680.83;;
17197;SDS011;8715;51.010;6.812;2024-01-27T01:25:33;709.97;;;679.42;;
17197;SDS011;8715;51.010;6.812;2024-01-27T01:28:19;713.33;;;682.47;;
17197;SDS011;8715;51.010;6.812;2024-01-27T01:31:06;701.58;;;671.28;;
17197;SDS011;8715;51.010;6.812;2024-01-27T01:33:51;721.33;;;689.65;;
17197;SDS011;8715;51.010;6.812;2024-01-27T01:36:38;702.65;;;672.95;;
17197;SDS011;8715;51.010;6.812;2024-01-27T01:39:23;722.05;;;690.47;;
17197;SDS011;8715;51.010;6.812;2024-01-27T01:42:08;727.80;;;695.83;;
17197;SDS011;8715;51.010;6.812;2024-01-27T01:44:53;708.25;;;677.47;;
17197;SDS011;8715;51.010;6.812;2024-01-27T01:47:38;719.22;;;688.28;;
17197;SDS011;8715;51.010;6.812;2024-01-27T01:50:23;715.28;;;684.10;;
17197;SDS011;8715;51.010;6.812;2024-01-27T01:53:09;709.17;;;678.85;;
17197;SDS011;8715;51.010;6.812;2024-01-27T01:55:55;717.78;;;686.40;;
17197;SDS011;8715;51.010;6.812;2024-01-27T01:58:39;707.50;;;676.92;;
17197;SDS011;8715;51.010;6.812;2024-01-27T02:01:25;728.97;;;697.20;;
17197;SDS011;8715;51.010;6.812;2024-01-27T02:04:10;708.30;;;677.83;;
17197;SDS011;8715;51.010;6.812;2024-01-27T02:06:55;708.08;;;677.25;;
17197;SDS011;8715;51.010;6.812;2024-01-27T02:09:41;712.50;;;681.30;;
17197;SDS011;8715;51.010;6.812;2024-01-27T02:12:27;714.03;;;682.63;;
17197;SDS011;8715;51.010;6.812;2024-01-27T02:15:13;706.30;;;675.90;;
17197;SDS011;8715;51.010;6.812;2024-01-27T02:17:58;703.63;;;673.60;;
17197;SDS011;8715;51.010;6.812;2024-01-27T02:20:43;709.95;;;679.47;;
17197;SDS011;8715;51.010;6.812;2024-01-27T02:23:28;717.47;;;685.38;;
17197;SDS011;8715;51.010;6.812;2024-01-27T02:26:14;721.10;;;689.88;;
17197;SDS011;8715;51.010;6.812;2024-01-27T02:28:59;710.13;;;679.65;;
17197;SDS011;8715;51.010;6.812;2024-01-27T02:31:44;700.75;;;671.05;;
17197;SDS011;8715;51.010;6.812;2024-01-27T02:34:30;711.05;;;680.22;;
17197;SDS011;8715;51.010;6.812;2024-01-27T02:37:15;710.33;;;679.42;;
17197;SDS011;8715;51.010;6.812;2024-01-27T02:40:00;709.63;;;678.65;;
17197;SDS011;8715;51.010;6.812;2024-01-27T02:42:46;697.63;;;667.83;;
17197;SDS011;8715;51.010;6.812;2024-01-27T02:45:31;704.42;;;673.92;;
17197;SDS011;8715;51.010;6.812;2024-01-27T02:48:16;705.60;;;675.08;;
17197;SDS011;8715;51.010;6.812;2024-01-27T02:51:01;713.70;;;682.92;;
17197;SDS011;8715;51.010;6.812;2024-01-27T02:53:46;744.60;;;711.97;;
17197;SDS011;8715;51.010;6.812;2024-01-27T02:56:32;704.22;;;673.67;;
17197;SDS011;8715;51.010;6.812;2024-01-27T02:59:18;705.47;;;675.33;;
17197;SDS011;8715;51.010;6.812;2024-01-27T03:02:03;710.85;;;680.55;;
17197;SDS011;8715;51.010;6.812;2024-01-27T03:04:48;696.08;;;666.22;;
17197;SDS011;8715;51.010;6.812;2024-01-27T03:07:33;702.30;;;671.97;;
17197;SDS011;8715;51.010;6.812;2024-01-27T03:10:18;715.30;;;684.45;;
17197;SDS011;8715;51.010;6.812;2024-01-27T03:13:03;699.60;;;669.83;;
17197;SDS011;8715;51.010;6.812;2024-01-27T03:15:50;693.05;;;663.15;;
17197;SDS011;8715;51.010;6.812;2024-01-27T03:18:36;699.42;;;669.60;;
17197;SDS011;8715;51.010;6.812;2024-01-27T03:21:21;706.33;;;675.50;;
17197;SDS011;8715;51.010;6.812;2024-01-27T03:24:06;700.70;;;670.17;;
17197;SDS011;8715;51.010;6.812;2024-01-27T03:26:51;712.05;;;681.45;;
17197;SDS011;8715;51.010;6.812;2024-01-27T03:29:36;705.65;;;675.42;;
17197;SDS011;8715;51.010;6.812;2024-01-27T03:32:22;705.75;;;675.08;;
17197;SDS011;8715;51.010;6.812;2024-01-27T03:35:08;710.05;;;679.13;;
17197;SDS011;8715;51.010;6.812;2024-01-27T03:37:53;699.58;;;669.40;;
17197;SDS011;8715;51.010;6.812;2024-01-27T03:40:38;699.42;;;669.53;;
17197;SDS011;8715;51.010;6.812;2024-01-27T03:43:23;699.22;;;668.28;;
17197;SDS011;8715;51.010;6.812;2024-01-27T03:46:08;702.97;;;672.92;;
17197;SDS011;8715;51.010;6.812;2024-01-27T03:48:54;689.53;;;659.60;;
17197;SDS011;8715;51.010;6.812;2024-01-27T03:51:40;692.25;;;663.17;;
17197;SDS011;8715;51.010;6.812;2024-01-27T03:54:25;698.42;;;668.50;;
17197;SDS011;8715;51.010;6.812;2024-01-27T03:57:10;714.70;;;683.90;;
17197;SDS011;8715;51.010;6.812;2024-01-27T03:59:55;699.70;;;669.47;;
17197;SDS011;8715;51.010;6.812;2024-01-27T04:02:40;698.00;;;669.03;;
17197;SDS011;8715;51.010;6.812;2024-01-27T04:05:26;704.38;;;674.15;;
17197;SDS011;8715;51.010;6.812;2024-01-27T04:08:12;693.17;;;664.00;;
17197;SDS011;8715;51.010;6.812;2024-01-27T04:10:57;682.58;;;653.72;;
17197;SDS011;8715;51.010;6.812;2024-01-27T04:13:42;691.80;;;662.33;;
17197;SDS011;8715;51.010;6.812;2024-01-27T04:16:27;693.80;;;663.92;;
17197;SDS011;8715;51.010;6.812;2024-01-27T04:19:12;691.50;;;662.30;;
17197;SDS011;8715;51.010;6.812;2024-01-27T04:21:59;686.55;;;657.03;;
17197;SDS011;8715;51.010;6.812;2024-01-27T04:24:43;702.10;;;672.38;;
17197;SDS011;8715;51.010;6.812;2024-01-27T04:27:29;694.90;;;665.42;;
17197;SDS011;8715;51.010;6.812;2024-01-27T04:30:14;685.15;;;656.72;;
17197;SDS011;8715;51.010;6.812;2024-01-27T04:32:59;682.28;;;653.78;;
17197;SDS011;8715;51.010;6.812;2024-01-27T04:35:44;677.00;;;648.72;;
17197;SDS011;8715;51.010;6.812;2024-01-27T04:38:30;685.47;;;656.47;;
17197;SDS011;8715;51.010;6.812;2024-01-27T04:41:15;681.80;;;653.05;;
17197;SDS011;8715;51.010;6.812;2024-01-27T04:44:00;673.08;;;644.75;;
17197;SDS011;8715;51.010;6.812;2024-01-27T04:46:45;671.67;;;644.22;;
17197;SDS011;8715;51.010;6.812;2024-01-27T04:49:30;678.60;;;650.67;;
17197;SDS011;8715;51.010;6.812;2024-01-27T04:52:15;660.88;;;632.85;;
17197;SDS011;8715;51.010;6.812;2024-01-27T04:55:01;672.65;;;644.25;;
17197;SDS011;8715;51.010;6.812;2024-01-27T04:57:46;668.80;;;641.17;;
17197;SDS011;8715;51.010;6.812;2024-01-27T05:00:31;677.38;;;648.90;;
17197;SDS011;8715;51.010;6.812;2024-01-27T05:03:16;674.00;;;645.85;;
17197;SDS011;8715;51.010;6.812;2024-01-27T05:06:01;653.55;;;626.47;;
17197;SDS011;8715;51.010;6.812;2024-01-27T05:08:47;663.92;;;636.05;;
17197;SDS011;8715;51.010;6.812;2024-01-27T05:11:33;658.10;;;630.92;;
17197;SDS011;8715;51.010;6.812;2024-01-27T05:14:18;658.15;;;631.13;;
17197;SDS011;8715;51.010;6.812;2024-01-27T05:17:04;644.28;;;618.08;;
17197;SDS011;8715;51.010;6.812;2024-01-27T05:19:50;646.10;;;618.88;;
17197;SDS011;8715;51.010;6.812;2024-01-27T05:22:35;650.00;;;622.85;;
17197;SDS011;8715;51.010;6.812;2024-01-27T05:25:21;660.90;;;633.65;;
17197;SDS011;8715;51.010;6.812;2024-01-27T05:28:07;656.28;;;629.13;;
17197;SDS011;8715;51.010;6.812;2024-01-27T05:30:52;643.50;;;616.67;;
17197;SDS011;8715;51.010;6.812;2024-01-27T05:33:38;657.92;;;630.80;;
17197;SDS011;8715;51.010;6.812;2024-01-27T05:36:24;623.40;;;598.03;;
17197;SDS011;8715;51.010;6.812;2024-01-27T05:39:08;630.15;;;604.28;;
17197;SDS011;8715;51.010;6.812;2024-01-27T05:41:54;640.65;;;614.50;;
17197;SDS011;8715;51.010;6.812;2024-01-27T05:44:40;655.55;;;628.45;;
17197;SDS011;8715;51.010;6.812;2024-01-27T05:47:25;637.50;;;611.40;;
17197;SDS011;8715;51.010;6.812;2024-01-27T05:50:11;649.70;;;623.05;;
17197;SDS011;8715;51.010;6.812;2024-01-27T05:52:56;637.03;;;611.00;;
17197;SDS011;8715;51.010;6.812;2024-01-27T05:55:41;635.95;;;609.53;;
17197;SDS011;8715;51.010;6.812;2024-01-27T05:58:26;637.63;;;611.88;;
17197;SDS011;8715;51.010;6.812;2024-01-27T06:01:12;638.53;;;612.53;;
17197;SDS011;8715;51.010;6.812;2024-01-27T06:03:57;633.78;;;607.55;;
17197;SDS011;8715;51.010;6.812;2024-01-27T06:06:42;624.63;;;599.03;;
17197;SDS011;8715;51.010;6.812;2024-01-27T06:09:27;648.25;;;621.53;;
17197;SDS011;8715;51.010;6.812;2024-01-27T06:12:12;622.40;;;597.28;;
17197;SDS011;8715;51.010;6.812;2024-01-27T06:14:57;620.88;;;594.60;;
17197;SDS011;8715;51.010;6.812;2024-01-27T06:17:44;611.03;;;585.28;;
17197;SDS011;8715;51.010;6.812;2024-01-27T06:20:29;615.30;;;590.05;;
17197;SDS011;8715;51.010;6.812;2024-01-27T06:23:14;632.28;;;606.50;;
17197;SDS011;8715;51.010;6.812;2024-01-27T06:26:03;640.50;;;613.95;;
17197;SDS011;8715;51.010;6.812;2024-01-27T06:28:48;649.75;;;623.20;;
17197;SDS011;8715;51.010;6.812;2024-01-27T06:31:33;626.28;;;599.25;;
17197;SDS011;8715;51.010;6.812;2024-01-27T06:34:20;627.53;;;602.08;;
17197;SDS011;8715;51.010;6.812;2024-01-27T06:37:05;617.00;;;591.45;;
17197;SDS011;8715;51.010;6.812;2024-01-27T06:39:50;628.78;;;603.13;;
17197;SDS011;8715;51.010;6.812;2024-01-27T06:42:35;624.97;;;599.88;;
17197;SDS011;8715;51.010;6.812;2024-01-27T06:45:20;630.03;;;604.35;;
17197;SDS011;8715;51.010;6.812;2024-01-27T06:48:05;643.35;;;616.58;;
17197;SDS011;8715;51.010;6.812;2024-01-27T06:50:52;629.22;;;602.72;;
17197;SDS011;8715;51.010;6.812;2024-01-27T06:53:37;620.72;;;595.17;;
17197;SDS011;8715;51.010;6.812;2024-01-27T06:56:23;620.78;;;595.30;;
17197;SDS011;8715;51.010;6.812;2024-01-27T06:59:07;613.05;;;588.08;;
17197;SDS011;8715;51.010;6.812;2024-01-27T07:01:53;628.72;;;603.33;;
17197;SDS011;8715;51.010;6.812;2024-01-27T07:04:38;624.35;;;598.65;;
17197;SDS011;8715;51.010;6.812;2024-01-27T07:07:25;626.38;;;600.45;;
17197;SDS011;8715;51.010;6.812;2024-01-27T07:10:10;623.20;;;597.60;;
17197;SDS011;8715;51.010;6.812;2024-01-27T07:12:55;622.40;;;597.03;;
17197;SDS011;8715;51.010;6.812;2024-01-27T07:15:40;642.60;;;616.08;;
17197;SDS011;8715;51.010;6.812;2024-01-27T07:18:25;623.40;;;597.38;;
17197;SDS011;8715;51.010;6.812;2024-01-27T07:21:14;625.08;;;599.63;;
17197;SDS011;8715;51.010;6.812;2024-01-27T07:24:01;627.10;;;601.60;;
17197;SDS011;8715;51.010;6.812;2024-01-27T07:26:46;629.00;;;603.10;;
17197;SDS011;8715;51.010;6.812;2024-01-27T07:29:31;633.30;;;607.38;;
17197;SDS011;8715;51.010;6.812;2024-01-27T07:32:17;631.55;;;604.35;;
17197;SDS011;8715;51.010;6.812;2024-01-27T07:35:02;642.53;;;615.65;;
17197;SDS011;8715;51.010;6.812;2024-01-27T07:37:49;621.13;;;595.03;;
17197;SDS011;8715;51.010;6.812;2024-01-27T07:40:35;630.53;;;603.30;;
17197;SDS011;8715;51.010;6.812;2024-01-27T07:43:20;644.53;;;616.83;;
17197;SDS011;8715;51.010;6.812;2024-01-27T07:46:05;642.90;;;616.67;;
17197;SDS011;8715;51.010;6.812;2024-01-27T07:48:50;653.75;;;626.20;;
17197;SDS011;8715;51.010;6.812;2024-01-27T07:51:36;648.85;;;622.33;;
17197;SDS011;8715;51.010;6.812;2024-01-27T07:54:21;649.53;;;622.55;;
17197;SDS011;8715;51.010;6.812;2024-01-27T07:57:08;639.08;;;612.22;;
17197;SDS011;8715;51.010;6.812;2024-01-27T07:59:53;637.53;;;610.00;;
17197;SDS011;8715;51.010;6.812;2024-01-27T08:02:38;649.45;;;622.88;;
17197;SDS011;8715;51.010;6.812;2024-01-27T08:05:23;638.30;;;612.05;;
17197;SDS011;8715;51.010;6.812;2024-01-27T08:08:09;655.08;;;627.30;;
17197;SDS011;8715;51.010;6.812;2024-01-27T08:10:54;652.83;;;625.28;;
17197;SDS011;8715;51.010;6.812;2024-01-27T08:13:41;665.33;;;637.53;;
17197;SDS011;8715;51.010;6.812;2024-01-27T08:16:26;663.42;;;635.65;;
17197;SDS011;8715;51.010;6.812;2024-01-27T08:19:11;662.85;;;634.80;;
17197;SDS011;8715;51.010;6.812;2024-01-27T08:21:56;673.60;;;645.45;;
17197;SDS011;8715;51.010;6.812;2024-01-27T08:24:41;655.95;;;629.15;;
17197;SDS011;8715;51.010;6.812;2024-01-27T08:27:26;674.65;;;646.50;;
17197;SDS011;8715;51.010;6.812;2024-01-27T08:30:13;680.20;;;652.15;;
17197;SDS011;8715;51.010;6.812;2024-01-27T08:32:58;682.20;;;653.70;;
17197;SDS011;8715;51.010;6.812;2024-01-27T08:35:43;695.75;;;666.70;;
17197;SDS011;8715;51.010;6.812;2024-01-27T08:38:28;681.50;;;652.58;;
17197;SDS011;8715;51.010;6.812;2024-01-27T08:41:13;696.63;;;666.50;;
17197;SDS011;8715;51.010;6.812;2024-01-27T08:43:58;703.03;;;672.65;;
17197;SDS011;8715;51.010;6.812;2024-01-27T08:46:45;710.47;;;679.95;;
17197;SDS011;8715;51.010;6.812;2024-01-27T08:49:30;690.63;;;660.35;;
17197;SDS011;8715;51.010;6.812;2024-01-27T08:52:15;691.30;;;661.63;;
17197;SDS011;8715;51.010;6.812;2024-01-27T08:55:00;711.30;;;680.65;;
17197;SDS011;8715;51.010;6.812;2024-01-27T08:57:45;711.38;;;680.78;;
17197;SDS011;8715;51.010;6.812;2024-01-27T09:00:31;714.08;;;683.35;;
17197;SDS011;8715;51.010;6.812;2024-01-27T09:03:17;700.72;;;670.58;;
17197;SDS011;8715;51.010;6.812;2024-01-27T09:06:04;722.30;;;690.65;;
17197;SDS011;8715;51.010;6.812;2024-01-27T09:08:49;712.72;;;681.33;;
17197;SDS011;8715;51.010;6.812;2024-01-27T09:11:34;717.13;;;685.75;;
17197;SDS011;8715;51.010;6.812;2024-01-27T09:14:19;717.33;;;685.88;;
17197;SDS011;8715;51.010;6.812;2024-01-27T09:17:04;727.08;;;695.25;;
17197;SDS011;8715;51.010;6.812;2024-01-27T09:19:51;735.08;;;701.45;;
17197;SDS011;8715;51.010;6.812;2024-01-27T09:22:36;748.80;;;714.50;;
17197;SDS011;8715;51.010;6.812;2024-01-27T09:25:21;741.42;;;708.25;;
17197;SDS011;8715;51.010;6.812;2024-01-27T09:28:06;735.60;;;702.60;;
17197;SDS011;8715;51.010;6.812;2024-01-27T09:30:51;736.88;;;703.83;;
17197;SDS011;8715;51.010;6.812;2024-01-27T09:33:36;745.17;;;710.50;;
17197;SDS011;8715;51.010;6.812;2024-01-27T09:36:22;730.88;;;698.33;;
17197;SDS011;8715;51.010;6.812;2024-01-27T09:39:07;743.60;;;709.95;;
17197;SDS011;8715;51.010;6.812;2024-01-27T09:41:53;743.38;;;709.35;;
17197;SDS011;8715;51.010;6.812;2024-01-27T09:44:39;748.67;;;714.78;;
17197;SDS011;8715;51.010;6.812;2024-01-27T09:47:24;753.20;;;718.67;;
17197;SDS011;8715;51.010;6.812;2024-01-27T09:50:10;751.72;;;717.42;;
17197;SDS011;8715;51.010;6.812;2024-01-27T09:52:57;741.45;;;707.45;;
17197;SDS011;8715;51.010;6.812;2024-01-27T09:55:43;749.08;;;714.85;;
17197;SDS011;8715;51.010;6.812;2024-01-27T09:58:28;763.03;;;727.15;;
17197;SDS011;8715;51.010;6.812;2024-01-27T10:01:13;763.47;;;728.10;;
17197;SDS011;8715;51.010;6.812;2024-01-27T10:04:01;757.28;;;722.00;;
17197;SDS011;8715;51.010;6.812;2024-01-27T10:06:46;751.70;;;716.72;;
17197;SDS011;8715;51.010;6.812;2024-01-27T10:09:33;765.55;;;729.55;;
17197;SDS011;8715;51.010;6.812;2024-01-27T10:12:18;774.13;;;737.10;;
17197;SDS011;8715;51.010;6.812;2024-01-27T10:15:05;777.45;;;740.13;;
17197;SDS011;8715;51.010;6.812;2024-01-27T10:17:50;774.80;;;737.25;;
17197;SDS011;8715;51.010;6.812;2024-01-27T10:20:35;773.75;;;736.25;;
17197;SDS011;8715;51.010;6.812;2024-01-27T10:23:20;773.00;;;735.47;;
17197;SDS011;8715;51.010;6.812;2024-01-27T10:26:08;772.75;;;735.78;;
17197;SDS011;8715;51.010;6.812;2024-01-27T10:28:54;778.58;;;741.03;;
17197;SDS011;8715;51.010;6.812;2024-01-27T10:31:39;778.92;;;740.97;;
17197;SDS011;8715;51.010;6.812;2024-01-27T10:34:24;777.50;;;739.72;;
17197;SDS011;8715;51.010;6.812;2024-01-27T10:37:11;795.50;;;756.15;;
17197;SDS011;8715;51.010;6.812;2024-01-27T10:40:00;791.53;;;752.15;;
17197;SDS011;8715;51.010;6.812;2024-01-27T10:42:47;799.35;;;759.58;;
17197;SDS011;8715;51.010;6.812;2024-01-27T10:45:36;791.92;;;752.50;;
17197;SDS011;8715;51.010;6.812;2024-01-27T10:48:21;789.28;;;749.90;;
17197;SDS011;8715;51.010;6.812;2024-01-27T10:51:08;796.97;;;756.70;;
17197;SDS011;8715;51.010;6.812;2024-01-27T10:53:54;801.45;;;760.13;;
17197;SDS011;8715;51.010;6.812;2024-01-27T10:56:41;799.80;;;757.40;;
17197;SDS011;8715;51.010;6.812;2024-01-27T10:59:28;797.17;;;756.17;;
17197;SDS011;8715;51.010;6.812;2024-01-27T11:02:15;800.13;;;759.30;;
17197;SDS011;8715;51.010;6.812;2024-01-27T11:05:01;809.55;;;767.28;;
17197;SDS011;8715;51.010;6.812;2024-01-27T11:07:47;805.53;;;764.03;;
17197;SDS011;8715;51.010;6.812;2024-01-27T11:10:32;805.55;;;763.47;;
17197;SDS011;8715;51.010;6.812;2024-01-27T11:13:21;802.72;;;761.22;;
17197;SDS011;8715;51.010;6.812;2024-01-27T11:16:15;811.83;;;769.72;;
17197;SDS011;8715;51.010;6.812;2024-01-27T11:19:01;812.85;;;770.72;;
17197;SDS011;8715;51.010;6.812;2024-01-27T11:21:46;814.33;;;771.33;;
17197;SDS011;8715;51.010;6.812;2024-01-27T11:24:32;812.92;;;770.30;;
17197;SDS011;8715;51.010;6.812;2024-01-27T11:27:17;817.25;;;773.92;;
17197;SDS011;8715;51.010;6.812;2024-01-27T11:30:02;811.47;;;768.90;;
17197;SDS011;8715;51.010;6.812;2024-01-27T11:32:49;816.72;;;773.08;;
17197;SDS011;8715;51.010;6.812;2024-01-27T11:35:35;812.90;;;770.42;;
17197;SDS011;8715;51.010;6.812;2024-01-27T11:38:20;817.67;;;774.22;;
17197;SDS011;8715;51.010;6.812;2024-01-27T11:41:05;815.65;;;772.60;;
17197;SDS011;8715;51.010;6.812;2024-01-27T11:43:53;814.67;;;771.50;;
17197;SDS011;8715;51.010;6.812;2024-01-27T11:49:25;814.47;;;772.10;;
17197;SDS011;8715;51.010;6.812;2024-01-27T11:52:10;820.58;;;776.92;;
17197;SDS011;8715;51.010;6.812;2024-01-27T11:54:55;808.45;;;766.33;;
17197;SDS011;8715;51.010;6.812;2024-01-27T11:57:40;819.33;;;775.17;;
17197;SDS011;8715;51.010;6.812;2024-01-27T12:00:25;817.80;;;773.88;;
17197;SDS011;8715;51.010;6.812;2024-01-27T12:03:10;827.45;;;782.45;;
17197;SDS011;8715;51.010;6.812;2024-01-27T12:05:57;825.85;;;780.92;;
17197;SDS011;8715;51.010;6.812;2024-01-27T12:08:42;829.00;;;783.72;;
17197;SDS011;8715;51.010;6.812;2024-01-27T12:11:30;819.85;;;775.50;;
17197;SDS011;8715;51.010;6.812;2024-01-27T12:14:16;825.25;;;780.00;;
17197;SDS011;8715;51.010;6.812;2024-01-27T12:17:01;827.72;;;782.80;;
17197;SDS011;8715;51.010;6.812;2024-01-27T12:19:48;824.88;;;780.22;;
17197;SDS011;8715;51.010;6.812;2024-01-27T12:22:35;827.20;;;782.63;;
17197;SDS011;8715;51.010;6.812;2024-01-27T12:25:21;828.38;;;783.75;;
17197;SDS011;8715;51.010;6.812;2024-01-27T12:28:06;828.65;;;783.13;;
17197;SDS011;8715;51.010;6.812;2024-01-27T12:30:52;827.55;;;781.90;;
17197;SDS011;8715;51.010;6.812;2024-01-27T12:33:37;825.72;;;781.38;;
17197;SDS011;8715;51.010;6.812;2024-01-27T12:36:24;835.17;;;788.83;;
17197;SDS011;8715;51.010;6.812;2024-01-27T12:39:10;823.92;;;779.63;;
17197;SDS011;8715;51.010;6.812;2024-01-27T12:41:55;827.30;;;782.17;;
17197;SDS011;8715;51.010;6.812;2024-01-27T12:44:40;821.70;;;777.53;;
17197;SDS011;8715;51.010;6.812;2024-01-27T12:47:25;833.00;;;787.28;;
17197;SDS011;8715;51.010;6.812;2024-01-27T12:50:10;834.08;;;788.10;;
17197;SDS011;8715;51.010;6.812;2024-01-27T12:52:55;831.65;;;786.33;;
17197;SDS011;8715;51.010;6.812;2024-01-27T12:55:42;826.80;;;781.45;;
17197;SDS011;8715;51.010;6.812;2024-01-27T12:58:26;835.90;;;789.30;;
17197;SDS011;8715;51.010;6.812;2024-01-27T13:01:12;825.92;;;780.38;;
17197;SDS011;8715;51.010;6.812;2024-01-27T13:03:57;833.30;;;786.80;;
17197;SDS011;8715;51.010;6.812;2024-01-27T13:06:42;829.75;;;783.42;;
17197;SDS011;8715;51.010;6.812;2024-01-27T13:09:27;834.65;;;788.28;;
17197;SDS011;8715;51.010;6.812;2024-01-27T13:12:13;838.60;;;792.15;;
17197;SDS011;8715;51.010;6.812;2024-01-27T13:14:58;838.85;;;792.00;;
17197;SDS011;8715;51.010;6.812;2024-01-27T13:17:43;832.30;;;786.15;;
17197;SDS011;8715;51.010;6.812;2024-01-27T13:20:28;838.88;;;791.10;;
17197;SDS011;8715;51.010;6.812;2024-01-27T13:23:13;832.63;;;785.72;;
17197;SDS011;8715;51.010;6.812;2024-01-27T13:25:58;833.80;;;787.28;;
17197;SDS011;8715;51.010;6.812;2024-01-27T13:28:45;839.65;;;792.58;;
17197;SDS011;8715;51.010;6.812;2024-01-27T13:31:30;833.20;;;786.75;;
17197;SDS011;8715;51.010;6.812;2024-01-27T13:34:15;836.95;;;789.60;;
17197;SDS011;8715;51.010;6.812;2024-01-27T13:37:00;841.15;;;793.65;;
17197;SDS011;8715;51.010;6.812;2024-01-27T13:39:47;840.60;;;793.20;;
17197;SDS011;8715;51.010;6.812;2024-01-27T13:42:32;843.35;;;795.15;;
17197;SDS011;8715;51.010;6.812;2024-01-27T13:45:20;843.10;;;795.22;;
17197;SDS011;8715;51.010;6.812;2024-01-27T13:48:05;839.60;;;792.03;;
17197;SDS011;8715;51.010;6.812;2024-01-27T13:50:51;833.72;;;786.75;;
17197;SDS011;8715;51.010;6.812;2024-01-27T13:53:37;832.25;;;785.70;;
17197;SDS011;8715;51.010;6.812;2024-01-27T13:56:23;836.35;;;789.40;;
17197;SDS011;8715;51.010;6.812;2024-01-27T13:59:08;833.95;;;787.50;;
17197;SDS011;8715;51.010;6.812;2024-01-27T14:01:55;839.70;;;792.97;;
17197;SDS011;8715;51.010;6.812;2024-01-27T14:04:40;833.92;;;787.35;;
17197;SDS011;8715;51.010;6.812;2024-01-27T14:07:25;829.97;;;784.03;;
17197;SDS011;8715;51.010;6.812;2024-01-27T14:10:10;829.78;;;783.67;;
17197;SDS011;8715;51.010;6.812;2024-01-27T14:12:55;834.58;;;788.10;;
17197;SDS011;8715;51.010;6.812;2024-01-27T14:15:40;826.88;;;781.80;;
17197;SDS011;8715;51.010;6.812;2024-01-27T14:18:27;828.83;;;783.20;;
17197;SDS011;8715;51.010;6.812;2024-01-27T14:21:14;831.78;;;785.40;;
17197;SDS011;8715;51.010;6.812;2024-01-27T14:24:00;829.47;;;783.60;;
17197;SDS011;8715;51.010;6.812;2024-01-27T14:26:48;830.50;;;784.80;;
17197;SDS011;8715;51.010;6.812;2024-01-27T14:29:33;827.15;;;781.58;;
17197;SDS011;8715;51.010;6.812;2024-01-27T14:32:18;828.90;;;783.67;;
17197;SDS011;8715;51.010;6.812;2024-01-27T14:35:05;832.45;;;786.80;;
17197;SDS011;8715;51.010;6.812;2024-01-27T14:37:51;831.85;;;786.28;;
17197;SDS011;8715;51.010;6.812;2024-01-27T14:40:37;827.15;;;781.78;;
17197;SDS011;8715;51.010;6.812;2024-01-27T14:43:22;837.30;;;791.08;;
17197;SDS011;8715;51.010;6.812;2024-01-27T14:46:07;840.05;;;793.63;;
17197;SDS011;8715;51.010;6.812;2024-01-27T14:48:52;838.05;;;791.15;;
17197;SDS011;8715;51.010;6.812;2024-01-27T14:51:39;831.00;;;785.08;;
17197;SDS011;8715;51.010;6.812;2024-01-27T14:54:25;831.83;;;785.10;;
17197;SDS011;8715;51.010;6.812;2024-01-27T14:57:10;836.92;;;790.90;;
17197;SDS011;8715;51.010;6.812;2024-01-27T14:59:55;832.67;;;786.28;;
17197;SDS011;8715;51.010;6.812;2024-01-27T15:02:40;835.67;;;789.30;;
17197;SDS011;8715;51.010;6.812;2024-01-27T15:05:27;833.35;;;787.20;;
17197;SDS011;8715;51.010;6.812;2024-01-27T15:08:14;829.80;;;780.80;;
17197;SDS011;8715;51.010;6.812;2024-01-27T15:10:59;835.45;;;789.13;;
17197;SDS011;8715;51.010;6.812;2024-01-27T15:13:44;834.58;;;786.97;;
17197;SDS011;8715;51.010;6.812;2024-01-27T15:16:29;833.38;;;787.00;;
17197;SDS011;8715;51.010;6.812;2024-01-27T15:19:16;832.33;;;786.70;;
17197;SDS011;8715;51.010;6.812;2024-01-27T15:22:01;840.67;;;793.92;;
17197;SDS011;8715;51.010;6.812;2024-01-27T15:24:47;834.08;;;787.97;;
17197;SDS011;8715;51.010;6.812;2024-01-27T15:27:33;829.95;;;784.28;;
17197;SDS011;8715;51.010;6.812;2024-01-27T15:30:18;827.17;;;782.10;;
17197;SDS011;8715;51.010;6.812;2024-01-27T15:33:04;824.17;;;778.70;;
17197;SDS011;8715;51.010;6.812;2024-01-27T15:35:49;830.45;;;784.83;;
17197;SDS011;8715;51.010;6.812;2024-01-27T15:38:34;826.17;;;781.40;;
17197;SDS011;8715;51.010;6.812;2024-01-27T15:41:21;838.88;;;792.83;;
17197;SDS011;8715;51.010;6.812;2024-01-27T15:44:07;819.28;;;775.50;;
17197;SDS011;8715;51.010;6.812;2024-01-27T15:46:52;820.63;;;776.63;;
17197;SDS011;8715;51.010;6.812;2024-01-27T15:49:37;819.78;;;775.60;;
17197;SDS011;8715;51.010;6.812;2024-01-27T15:52:22;828.97;;;783.85;;
17197;SDS011;8715;51.010;6.812;2024-01-27T15:55:07;816.40;;;773.30;;